Time;durP1;ratioP1;P1;durP2;ratioP2;P2;SDS_P1;SDS_P2;PMS_P1;PMS_P2;Temp;Humidity;BMP_temperature;BMP_pressure;BME280_temperature;BME280_humidity;BME280_pressure;Samples;Min_cycle;Max_cycle;Signal;HPM_P1;HPM_P2
2023/06/20 00:03:42;;;;;;;;;;;17.20;99.90;;;;;;8317802;28;19935;-78
2023/06/20 00:07:43;;;;;;;;;;;17.00;99.90;;;;;;8318469;28;20491;-77
2023/06/20 00:11:43;;;;;;;;;;;17.00;99.90;;;;;;8317106;28;20404;-77
2023/06/20 00:15:44;;;;;;;;;;;16.90;99.90;;;;;;8317291;28;19917;-76
2023/06/20 00:19:45;;;;;;;;;;;16.60;99.90;;;;;;8316764;28;19913;-77
2023/06/20 00:23:45;;;;;;;;;;;17.40;99.90;;;;;;8316138;28;19913;-77
2023/06/20 00:27:46;;;;;;;;;;;17.10;99.90;;;;;;8315977;28;20451;-76
2023/06/20 00:31:46;;;;;;;;;;;17.60;99.90;;;;;;8311820;28;20007;-77
2023/06/20 00:35:46;;;;;;;;;;;17.40;99.90;;;;;;8315431;28;20003;-77
2023/06/20 00:39:47;;;;;;;;;;;17.50;99.90;;;;;;8316087;28;20028;-76
2023/06/20 00:43:48;;;;;;;;;;;16.90;99.90;;;;;;8315424;28;19916;-77
2023/06/20 00:47:50;;;;;;;;;;;17.10;99.90;;;;;;8316045;28;19923;-76
2023/06/20 00:51:50;;;;;;;;;;;17.10;99.90;;;;;;8314269;28;19920;-77
2023/06/20 00:55:51;;;;;;;;;;;17.40;99.90;;;;;;8316665;28;19917;-77
2023/06/20 00:59:51;;;;;;;;;;;18.00;99.90;;;;;;8315995;28;19963;-76
2023/06/20 01:03:52;;;;;;;;;;;17.90;99.90;;;;;;8317631;28;19913;-76
2023/06/20 01:07:58;;;;;;;;;;;18.10;99.90;;;;;;8315677;28;19920;-77
2023/06/20 01:12:13;;;;;;;;;;;18.10;99.90;;;;;;8315508;28;20397;-78
2023/06/20 01:16:21;;;;;;;;;;;18.10;99.90;;;;;;8316348;28;19979;-77
2023/06/20 01:20:32;;;;;;;;;;;18.60;99.90;;;;;;8315075;28;19971;-77
2023/06/20 01:24:58;;;;;;;;;;;18.60;99.90;;;;;;8314269;28;20437;-77
2023/06/20 01:29:02;;;;;;;;;;;18.60;99.90;;;;;;8315767;28;19924;-76
2023/06/20 01:33:04;;;;;;;;;;;18.60;99.90;;;;;;8315015;28;19931;-76
2023/06/20 01:37:06;;;;;;;;;;;18.60;99.90;;;;;;8314974;28;19916;-77
2023/06/20 01:41:07;;;;;;;;;;;18.80;99.90;;;;;;8315690;28;19916;-77
2023/06/20 01:45:10;;;;;;;;;;;19.30;99.90;;;;;;8313080;28;19961;-76
2023/06/20 01:49:11;;;;;;;;;;;18.70;99.90;;;;;;8304168;28;19913;-76
2023/06/20 01:53:12;;;;;;;;;;;19.00;99.90;;;;;;8315623;28;19909;-76
2023/06/20 01:57:13;;;;;;;;;;;18.70;99.90;;;;;;8314040;28;19913;-76
2023/06/20 02:01:14;;;;;;;;;;;19.00;99.90;;;;;;8312909;28;19921;-76
2023/06/20 02:05:15;;;;;;;;;;;18.60;99.90;;;;;;8312991;28;19909;-76
2023/06/20 02:09:16;;;;;;;;;;;18.30;99.90;;;;;;8314275;28;20013;-76
2023/06/20 02:13:18;;;;;;;;;;;18.60;99.90;;;;;;8312436;28;20008;-76
2023/06/20 02:17:19;;;;;;;;;;;18.50;99.90;;;;;;8312203;28;19909;-76
2023/06/20 02:21:26;;;;;;;;;;;18.10;99.90;;;;;;8312176;28;20011;-76
2023/06/20 02:25:29;;;;;;;;;;;18.10;99.90;;;;;;8313257;28;20029;-76
2023/06/20 02:29:32;;;;;;;;;;;17.90;99.90;;;;;;8314217;28;19913;-77
2023/06/20 02:33:33;;;;;;;;;;;18.10;99.90;;;;;;8313442;28;19916;-76
2023/06/20 02:37:35;;;;;;;;;;;18.30;99.90;;;;;;8312519;28;19917;-77
2023/06/20 02:41:35;;;;;;;;;;;18.20;99.90;;;;;;8311827;28;19916;-77
2023/06/20 02:45:36;;;;;;;;;;;18.20;99.90;;;;;;8311531;28;19916;-76
2023/06/20 02:49:39;;;;;;;;;;;17.80;99.90;;;;;;8309975;28;19991;-77
2023/06/20 02:53:45;;;;;;;;;;;17.60;99.90;;;;;;8310950;28;19914;-76
2023/06/20 02:57:49;;;;;;;;;;;17.60;99.90;;;;;;8311486;28;19910;-76
2023/06/20 03:01:56;;;;;;;;;;;17.60;99.90;;;;;;8311132;28;19917;-77
2023/06/20 03:05:58;;;;;;;;;;;17.70;99.90;;;;;;8311399;28;20522;-76
2023/06/20 03:09:58;;;;;;;;;;;17.90;99.90;;;;;;8310963;28;19917;-76
2023/06/20 03:13:59;;;;;;;;;;;17.90;99.90;;;;;;8310867;28;19910;-76
2023/06/20 03:18:00;;;;;;;;;;;17.50;99.90;;;;;;8311161;28;19909;-77
2023/06/20 03:22:00;;;;;;;;;;;17.70;99.90;;;;;;8311081;28;19951;-76
2023/06/20 03:26:01;;;;;;;;;;;18.10;99.90;;;;;;8301796;28;19924;-76
2023/06/20 03:30:03;;;;;;;;;;;18.10;99.90;;;;;;8310094;28;19975;-77
2023/06/20 03:34:03;;;;;;;;;;;17.90;99.90;;;;;;8309385;28;19917;-76
2023/06/20 03:38:04;;;;;;;;;;;17.90;99.90;;;;;;8312630;28;19979;-76
2023/06/20 03:42:04;;;;;;;;;;;18.20;99.90;;;;;;8310166;28;20484;-76
2023/06/20 03:46:05;;;;;;;;;;;18.00;99.90;;;;;;8309161;28;19921;-77
2023/06/20 03:50:05;;;;;;;;;;;18.40;99.90;;;;;;8309238;28;19968;-76
2023/06/20 03:54:06;;;;;;;;;;;18.20;99.90;;;;;;8309925;28;19920;-76
2023/06/20 03:58:06;;;;;;;;;;;18.20;99.90;;;;;;8311402;28;19913;-76
2023/06/20 04:02:07;;;;;;;;;;;18.40;99.90;;;;;;8309485;28;19921;-75
2023/06/20 04:06:07;;;;;;;;;;;18.40;99.90;;;;;;8310780;28;20016;-77
2023/06/20 04:10:09;;;;;;;;;;;18.70;99.90;;;;;;8311380;28;19925;-77
2023/06/20 04:14:09;;;;;;;;;;;18.40;99.90;;;;;;8309837;28;19937;-76
2023/06/20 04:18:10;;;;;;;;;;;18.60;99.90;;;;;;8309664;28;19987;-76
2023/06/20 04:22:11;;;;;;;;;;;18.80;99.90;;;;;;8310367;28;19909;-76
2023/06/20 04:26:12;;;;;;;;;;;18.20;99.90;;;;;;8305770;28;19928;-86
2023/06/20 04:30:22;;;;;;;;;;;18.00;99.90;;;;;;8316124;28;19921;-87
2023/06/20 04:34:23;;;;;;;;;;;17.90;99.90;;;;;;8316356;28;19953;-88
2023/06/20 04:38:32;;;;;;;;;;;18.50;99.90;;;;;;8315302;28;19971;-87
2023/06/20 04:42:32;;;;;;;;;;;17.50;99.90;;;;;;8320358;28;20104;-89
2023/06/20 04:46:33;;;;;;;;;;;17.90;99.90;;;;;;8315165;28;19969;-88
2023/06/20 04:50:34;;;;;;;;;;;17.90;99.90;;;;;;8317616;28;20035;-88
2023/06/20 04:54:34;;;;;;;;;;;18.90;99.90;;;;;;8318626;28;19909;-86
2023/06/20 04:58:35;;;;;;;;;;;19.20;99.90;;;;;;8320483;28;19914;-87
2023/06/20 05:02:35;;;;;;;;;;;19.40;99.90;;;;;;8315859;28;19920;-87
2023/06/20 05:06:36;;;;;;;;;;;19.70;99.90;;;;;;8306760;28;19920;-87
2023/06/20 05:10:36;;;;;;;;;;;19.30;99.90;;;;;;8316896;28;19925;-86
2023/06/20 05:14:37;;;;;;;;;;;19.00;99.90;;;;;;8312257;28;19914;-88
2023/06/20 05:18:41;;;;;;;;;;;19.70;99.90;;;;;;8305033;28;19913;-87
2023/06/20 05:22:42;;;;;;;;;;;20.50;99.90;;;;;;8315578;28;19910;-86
2023/06/20 05:26:42;;;;;;;;;;;20.30;99.90;;;;;;8312500;28;20632;-87
2023/06/20 05:30:43;;;;;;;;;;;21.30;99.90;;;;;;8325189;28;19913;-88
2023/06/20 05:34:43;;;;;;;;;;;21.30;99.90;;;;;;8315290;28;20000;-86
2023/06/20 05:38:47;;;;;;;;;;;21.50;99.90;;;;;;8323066;28;19917;-87
2023/06/20 05:42:47;;;;;;;;;;;21.30;99.90;;;;;;8320369;28;19962;-89
2023/06/20 05:46:48;;;;;;;;;;;21.50;99.90;;;;;;8320239;28;19916;-87
2023/06/20 05:50:51;;;;;;;;;;;21.20;99.90;;;;;;8325150;28;19920;-89
2023/06/20 05:54:55;;;;;;;;;;;21.40;99.90;;;;;;8313521;28;19928;-87
2023/06/20 05:58:55;;;;;;;;;;;21.20;99.90;;;;;;8319303;28;19947;-88
2023/06/20 06:02:58;;;;;;;;;;;21.00;99.90;;;;;;8332639;28;19914;-86
2023/06/20 06:06:59;;;;;;;;;;;21.40;99.90;;;;;;8317697;28;20243;-87
2023/06/20 06:11:08;;;;;;;;;;;22.00;99.90;;;;;;8319049;28;19924;-87
2023/06/20 06:15:09;;;;;;;;;;;23.30;99.90;;;;;;8326350;28;20431;-86
2023/06/20 06:19:13;;;;;;;;;;;24.90;99.90;;;;;;8320973;28;19913;-90
2023/06/20 06:23:13;;;;;;;;;;;26.10;99.90;;;;;;8315685;28;19955;-87
2023/06/20 06:27:14;;;;;;;;;;;26.50;99.90;;;;;;8317718;28;19917;-88
2023/06/20 06:31:15;;;;;;;;;;;27.00;99.90;;;;;;8313595;28;19971;-89
2023/06/20 06:35:17;;;;;;;;;;;27.20;99.90;;;;;;8315699;28;19999;-85
2023/06/20 06:39:18;;;;;;;;;;;27.50;99.90;;;;;;8309731;28;20416;-89
2023/06/20 06:43:18;;;;;;;;;;;27.70;99.90;;;;;;8319940;28;19909;-88
2023/06/20 06:47:19;;;;;;;;;;;28.10;99.90;;;;;;8318744;28;19920;-88
2023/06/20 06:51:20;;;;;;;;;;;28.70;99.90;;;;;;8309977;28;19944;-87
2023/06/20 06:55:20;;;;;;;;;;;29.30;99.90;;;;;;8314893;28;19913;-87
2023/06/20 06:59:24;;;;;;;;;;;29.60;99.90;;;;;;8314602;28;19978;-87
2023/06/20 07:03:24;;;;;;;;;;;29.60;99.90;;;;;;8325387;28;19957;-88
2023/06/20 07:12:14;;;;;;;;;;;29.90;99.90;;;;;;8350128;28;20401;-86
2023/06/20 07:16:13;;;;;;;;;;;30.00;99.90;;;;;;8349035;28;20447;-87
2023/06/20 07:20:13;;;;;;;;;;;30.60;99.90;;;;;;8450556;22;19932;-85
2023/06/20 07:24:14;;;;;;;;;;;31.10;99.90;;;;;;8364801;28;19991;-86
2023/06/20 07:28:14;;;;;;;;;;;31.20;99.90;;;;;;8355376;28;20294;-80
2023/06/20 07:32:16;;;;;;;;;;;31.40;99.90;;;;;;8340680;28;19996;-81
2023/06/20 07:36:16;;;;;;;;;;;31.50;99.90;;;;;;8344046;28;19909;-80
2023/06/20 07:40:17;;;;;;;;;;;32.10;99.90;;;;;;8344123;28;19999;-80
2023/06/20 07:44:18;;;;;;;;;;;32.60;99.90;;;;;;8337926;28;19920;-79
2023/06/20 07:48:18;;;;;;;;;;;32.80;99.90;;;;;;8338807;28;19920;-80
2023/06/20 07:52:19;;;;;;;;;;;32.60;99.90;;;;;;8344860;28;20302;-80
2023/06/20 07:56:19;;;;;;;;;;;32.30;99.90;;;;;;8343597;28;19920;-79
2023/06/20 08:00:20;;;;;;;;;;;32.60;96.10;;;;;;8340012;28;20429;-82
2023/06/20 08:04:20;;;;;;;;;;;32.00;96.70;;;;;;8333142;28;19913;-79
2023/06/20 08:08:21;;;;;;;;;;;31.90;97.40;;;;;;8346400;28;19913;-80
2023/06/20 08:12:22;;;;;;;;;;;31.80;97.80;;;;;;8351567;28;19921;-80
2023/06/20 08:16:23;;;;;;;;;;;32.20;96.80;;;;;;8342508;28;19961;-79
2023/06/20 08:20:23;;;;;;;;;;;32.10;96.90;;;;;;8369125;28;19999;-80
2023/06/20 08:24:23;;;;;;;;;;;32.20;97.10;;;;;;8360337;28;19994;-80
2023/06/20 08:28:24;;;;;;;;;;;32.60;96.40;;;;;;8361927;28;19933;-80
2023/06/20 08:32:25;;;;;;;;;;;32.70;94.90;;;;;;8373108;28;19988;-80
2023/06/20 08:36:26;;;;;;;;;;;32.80;95.20;;;;;;8360238;28;20396;-81
2023/06/20 08:40:27;;;;;;;;;;;33.10;91.90;;;;;;8348766;28;20276;-80
2023/06/20 08:44:27;;;;;;;;;;;33.00;92.20;;;;;;8367793;28;20015;-80
2023/06/20 08:48:27;;;;;;;;;;;33.40;93.60;;;;;;8373603;28;20288;-80
2023/06/20 08:52:29;;;;;;;;;;;33.70;92.10;;;;;;8374851;28;19919;-79
2023/06/20 08:56:29;;;;;;;;;;;33.60;87.40;;;;;;8379298;28;20631;-80
2023/06/20 09:00:30;;;;;;;;;;;33.10;90.00;;;;;;8383296;28;19908;-80
2023/06/20 09:04:30;;;;;;;;;;;33.10;90.30;;;;;;8358261;28;19963;-79
2023/06/20 09:08:35;;;;;;;;;;;32.90;91.00;;;;;;8359411;28;19967;-79
2023/06/20 09:12:44;;;;;;;;;;;33.20;91.00;;;;;;8369738;28;20045;-79
2023/06/20 09:16:48;;;;;;;;;;;33.50;86.90;;;;;;8362062;28;19919;-80
2023/06/20 09:20:48;;;;;;;;;;;33.50;88.10;;;;;;8359345;28;20164;-81
2023/06/20 09:24:49;;;;;;;;;;;33.80;85.80;;;;;;8355936;28;20129;-80
2023/06/20 09:28:49;;;;;;;;;;;34.20;83.60;;;;;;8361968;28;19931;-81
2023/06/20 09:32:50;;;;;;;;;;;34.40;74.10;;;;;;8365446;28;19909;-79
2023/06/20 09:36:50;;;;;;;;;;;33.10;79.50;;;;;;8388035;28;19923;-79
2023/06/20 09:40:51;;;;;;;;;;;32.80;85.60;;;;;;8371449;28;19912;-79
2023/06/20 09:44:52;;;;;;;;;;;32.90;83.10;;;;;;8382942;28;19909;-80
2023/06/20 09:48:53;;;;;;;;;;;33.30;86.80;;;;;;8364608;28;20373;-80
2023/06/20 09:53:06;;;;;;;;;;;33.70;75.70;;;;;;8382079;28;19919;-79
2023/06/20 09:57:10;;;;;;;;;;;33.70;80.00;;;;;;8365763;28;20216;-80
2023/06/20 10:01:12;;;;;;;;;;;33.80;76.20;;;;;;8361734;28;20454;-80
2023/06/20 10:05:16;;;;;;;;;;;34.10;75.90;;;;;;8357006;28;19973;-80
2023/06/20 10:09:17;;;;;;;;;;;34.20;75.30;;;;;;8364833;28;19940;-80
2023/06/20 10:13:18;;;;;;;;;;;34.50;76.10;;;;;;8365051;28;19952;-80
2023/06/20 10:17:29;;;;;;;;;;;34.40;73.30;;;;;;8364739;28;19912;-79
2023/06/20 10:21:48;;;;;;;;;;;34.20;77.10;;;;;;8356032;28;20224;-80
2023/06/20 10:25:51;;;;;;;;;;;34.70;74.80;;;;;;8373813;28;19956;-80
2023/06/20 10:29:53;;;;;;;;;;;35.20;71.10;;;;;;8359010;28;19921;-81
2023/06/20 10:33:57;;;;;;;;;;;34.00;73.20;;;;;;8378841;28;19955;-79
2023/06/20 10:38:08;;;;;;;;;;;34.00;70.30;;;;;;8360385;28;19943;-80
2023/06/20 10:42:09;;;;;;;;;;;34.20;67.60;;;;;;8359909;28;19916;-79
2023/06/20 10:46:09;;;;;;;;;;;33.90;68.30;;;;;;8363512;28;20225;-79
2023/06/20 10:50:13;;;;;;;;;;;34.10;72.80;;;;;;8397662;28;20116;-79
2023/06/20 10:54:14;;;;;;;;;;;35.10;65.00;;;;;;8352117;28;19912;-79
2023/06/20 10:58:15;;;;;;;;;;;35.30;63.20;;;;;;8359826;28;20416;-79
2023/06/20 11:02:16;;;;;;;;;;;35.40;63.20;;;;;;8361312;28;19913;-80
2023/06/20 11:06:17;;;;;;;;;;;35.70;61.70;;;;;;8360308;28;19912;-79
2023/06/20 11:10:21;;;;;;;;;;;36.50;59.60;;;;;;8378673;28;20120;-79
2023/06/20 11:14:22;;;;;;;;;;;37.30;58.60;;;;;;8360424;28;20575;-80
2023/06/20 11:18:23;;;;;;;;;;;37.40;57.80;;;;;;8361103;28;20371;-79
2023/06/20 11:22:23;;;;;;;;;;;37.80;55.80;;;;;;8378973;28;20007;-79
2023/06/20 11:26:34;;;;;;;;;;;37.60;55.50;;;;;;8378049;28;19912;-80
2023/06/20 11:30:35;;;;;;;;;;;37.80;57.40;;;;;;8359949;28;19920;-80
2023/06/20 11:34:53;;;;;;;;;;;37.40;55.50;;;;;;8377891;28;20120;-80
2023/06/20 11:38:54;;;;;;;;;;;37.20;57.50;;;;;;8360060;28;19908;-79
2023/06/20 11:42:54;;;;;;;;;;;36.60;60.60;;;;;;8360746;28;19912;-77
2023/06/20 11:46:58;;;;;;;;;;;36.30;57.50;;;;;;8366719;28;20286;-79
2023/06/20 11:50:59;;;;;;;;;;;36.60;57.90;;;;;;8367505;28;20445;-79
2023/06/20 11:55:00;;;;;;;;;;;37.10;56.60;;;;;;8384687;28;20135;-80
2023/06/20 11:59:00;;;;;;;;;;;36.50;56.80;;;;;;8384678;28;19915;-79
2023/06/20 12:03:01;;;;;;;;;;;36.70;59.30;;;;;;8384710;28;19913;-80
2023/06/20 12:07:02;;;;;;;;;;;35.90;61.50;;;;;;8366684;28;20376;-80
2023/06/20 12:11:03;;;;;;;;;;;35.50;61.30;;;;;;8366194;28;19912;-79
2023/06/20 12:15:04;;;;;;;;;;;35.60;61.70;;;;;;8384134;28;20409;-79
2023/06/20 12:19:04;;;;;;;;;;;36.30;61.10;;;;;;8366714;28;19942;-78
2023/06/20 12:23:05;;;;;;;;;;;36.30;58.70;;;;;;8366125;28;19934;-79
2023/06/20 12:27:05;;;;;;;;;;;36.30;58.10;;;;;;8366076;28;19908;-80
2023/06/20 12:31:06;;;;;;;;;;;37.90;58.80;;;;;;8365522;28;20379;-80
2023/06/20 12:35:06;;;;;;;;;;;39.70;55.80;;;;;;8383664;28;20426;-81
2023/06/20 12:39:07;;;;;;;;;;;40.50;54.20;;;;;;8358451;28;19932;-80
2023/06/20 12:43:08;;;;;;;;;;;41.40;51.70;;;;;;8382802;28;20428;-80
2023/06/20 12:47:09;;;;;;;;;;;42.10;51.70;;;;;;8383179;28;19919;-81
2023/06/20 12:51:09;;;;;;;;;;;41.80;47.90;;;;;;8364708;28;20297;-80
2023/06/20 12:55:10;;;;;;;;;;;41.90;49.80;;;;;;8363735;28;19919;-79
2023/06/20 12:59:10;;;;;;;;;;;41.50;49.60;;;;;;8365697;28;19962;-80
2023/06/20 13:03:11;;;;;;;;;;;40.90;50.60;;;;;;8367918;28;19912;-80
2023/06/20 13:07:11;;;;;;;;;;;41.10;54.40;;;;;;8383526;28;20209;-80
2023/06/20 13:11:14;;;;;;;;;;;42.90;47.50;;;;;;8382253;28;20017;-79
2023/06/20 13:15:19;;;;;;;;;;;42.10;48.80;;;;;;8364777;28;19909;-81
2023/06/20 13:19:21;;;;;;;;;;;42.30;49.50;;;;;;8376326;22;20043;-80
2023/06/20 13:23:21;;;;;;;;;;;42.10;47.90;;;;;;8332389;28;19908;-79
2023/06/20 13:27:23;;;;;;;;;;;42.00;49.30;;;;;;8331686;28;19916;-79
2023/06/20 13:31:25;;;;;;;;;;;42.00;49.70;;;;;;8331358;28;20205;-80
2023/06/20 13:35:26;;;;;;;;;;;41.50;50.20;;;;;;8331339;28;19938;-80
2023/06/20 13:39:28;;;;;;;;;;;42.40;49.80;;;;;;8349802;28;19983;-80
2023/06/20 13:43:28;;;;;;;;;;;43.50;47.50;;;;;;8349984;28;19913;-79
2023/06/20 13:47:28;;;;;;;;;;;42.80;48.70;;;;;;8350490;28;19923;-80
2023/06/20 13:51:29;;;;;;;;;;;42.80;47.80;;;;;;8351175;28;19917;-79
2023/06/20 13:55:29;;;;;;;;;;;41.80;48.40;;;;;;8334698;28;19924;-80
2023/06/20 13:59:30;;;;;;;;;;;42.90;47.40;;;;;;8347553;28;20050;-77
2023/06/20 14:03:30;;;;;;;;;;;42.90;47.20;;;;;;8314308;28;20094;-80
2023/06/20 14:07:33;;;;;;;;;;;42.00;47.90;;;;;;8332678;28;20490;-80
2023/06/20 14:11:34;;;;;;;;;;;43.10;48.80;;;;;;8329771;28;19913;-81
2023/06/20 14:15:34;;;;;;;;;;;43.90;47.20;;;;;;8347893;28;19979;-81
2023/06/20 14:29:10;;;;;;;;;;;45.00;44.50;;;;;;8338420;28;19978;-80
2023/06/20 14:38:10;;;;;;;;;;;44.10;45.30;;;;;;8328450;28;19968;-79
2023/06/20 14:42:11;;;;;;;;;;;42.40;47.20;;;;;;8314574;28;19951;-79
2023/06/20 14:46:11;;;;;;;;;;;41.30;49.30;;;;;;8345873;28;20297;-80
2023/06/20 14:50:11;;;;;;;;;;;41.60;47.70;;;;;;8340636;28;20165;-79
2023/06/20 14:54:13;;;;;;;;;;;42.10;48.00;;;;;;8345564;28;19962;-80
2023/06/20 14:58:13;;;;;;;;;;;42.40;48.10;;;;;;8324056;28;19916;-79
2023/06/20 15:02:14;;;;;;;;;;;41.20;48.80;;;;;;8325760;28;19909;-79
2023/06/20 15:06:14;;;;;;;;;;;40.00;51.60;;;;;;8334350;28;20356;-79
2023/06/20 15:10:15;;;;;;;;;;;39.60;51.90;;;;;;8331353;28;20377;-79
2023/06/20 15:14:15;;;;;;;;;;;38.60;53.10;;;;;;8339157;28;19917;-79
2023/06/20 15:18:15;;;;;;;;;;;38.10;54.10;;;;;;8342492;28;20348;-79
2023/06/20 15:22:16;;;;;;;;;;;37.00;55.50;;;;;;8346320;28;19917;-79
2023/06/20 15:26:16;;;;;;;;;;;36.80;57.10;;;;;;8321812;28;19920;-79
2023/06/20 15:30:17;;;;;;;;;;;37.00;55.60;;;;;;8324995;28;19917;-79
2023/06/20 15:34:17;;;;;;;;;;;37.10;56.70;;;;;;8346540;28;19912;-79
2023/06/20 15:38:18;;;;;;;;;;;38.10;54.60;;;;;;8327644;28;19939;-79
2023/06/20 15:42:18;;;;;;;;;;;38.80;55.20;;;;;;8332961;28;19921;-79
2023/06/20 15:46:19;;;;;;;;;;;39.20;54.20;;;;;;8344138;28;19917;-78
2023/06/20 15:50:19;;;;;;;;;;;38.80;53.90;;;;;;8325878;28;20011;-79
2023/06/20 15:54:20;;;;;;;;;;;38.00;54.40;;;;;;8342188;28;19917;-79
2023/06/20 15:58:20;;;;;;;;;;;37.00;56.10;;;;;;8325270;28;20099;-79
2023/06/20 16:02:24;;;;;;;;;;;36.00;58.50;;;;;;8340609;28;19924;-79
2023/06/20 16:06:24;;;;;;;;;;;35.10;61.70;;;;;;8341042;28;19923;-79
2023/06/20 16:10:25;;;;;;;;;;;34.80;60.60;;;;;;8322489;28;19920;-77
2023/06/20 16:14:25;;;;;;;;;;;34.70;61.20;;;;;;8340017;28;20454;-78
2023/06/20 16:18:26;;;;;;;;;;;34.60;61.40;;;;;;8318760;28;20114;-79
2023/06/20 16:22:26;;;;;;;;;;;34.70;63.10;;;;;;8343260;28;19920;-78
2023/06/20 16:26:27;;;;;;;;;;;34.30;61.90;;;;;;8319952;28;20435;-78
2023/06/20 16:30:27;;;;;;;;;;;33.60;65.10;;;;;;8336192;28;19970;-77
2023/06/20 16:34:28;;;;;;;;;;;33.00;66.20;;;;;;8345074;28;19917;-78
2023/06/20 16:38:28;;;;;;;;;;;32.90;67.70;;;;;;8327145;28;20254;-78
2023/06/20 16:42:29;;;;;;;;;;;33.00;67.30;;;;;;8349731;28;19921;-78
2023/06/20 16:46:29;;;;;;;;;;;33.10;66.80;;;;;;8350065;28;19949;-80
2023/06/20 16:50:30;;;;;;;;;;;32.90;66.60;;;;;;8349470;28;19924;-79
2023/06/20 16:54:30;;;;;;;;;;;32.60;69.80;;;;;;8334858;28;19909;-78
2023/06/20 16:58:31;;;;;;;;;;;32.20;70.30;;;;;;8352784;28;19955;-78
2023/06/20 17:02:32;;;;;;;;;;;31.80;69.60;;;;;;8344588;28;19998;-79
2023/06/20 17:06:33;;;;;;;;;;;31.60;71.80;;;;;;8335140;28;20420;-78
2023/06/20 17:10:33;;;;;;;;;;;31.40;73.40;;;;;;8351157;28;19924;-78
2023/06/20 17:14:34;;;;;;;;;;;31.30;74.70;;;;;;8326523;28;19971;-78
2023/06/20 17:18:34;;;;;;;;;;;31.10;75.40;;;;;;8333254;28;19924;-79
2023/06/20 17:22:35;;;;;;;;;;;30.80;74.90;;;;;;8337483;28;20430;-79
2023/06/20 17:26:35;;;;;;;;;;;30.70;76.50;;;;;;8329828;28;20392;-79
2023/06/20 17:30:36;;;;;;;;;;;30.50;77.60;;;;;;8324495;28;19928;-77
2023/06/20 17:34:39;;;;;;;;;;;30.30;78.30;;;;;;8340978;28;20308;-79
2023/06/20 17:38:39;;;;;;;;;;;30.20;80.60;;;;;;8341298;28;20630;-78
2023/06/20 17:42:40;;;;;;;;;;;30.00;79.80;;;;;;8330144;28;19920;-79
2023/06/20 17:46:41;;;;;;;;;;;29.60;83.90;;;;;;8342155;28;20387;-78
2023/06/20 17:50:41;;;;;;;;;;;29.20;85.90;;;;;;8340873;28;20013;-77
2023/06/20 17:54:42;;;;;;;;;;;28.80;88.40;;;;;;8347701;28;20361;-78
2023/06/20 17:58:42;;;;;;;;;;;28.40;87.00;;;;;;8333808;28;19909;-78
2023/06/20 18:02:43;;;;;;;;;;;28.30;90.10;;;;;;8351867;28;20580;-78
2023/06/20 18:06:43;;;;;;;;;;;28.30;96.40;;;;;;8328682;28;19923;-79
2023/06/20 18:10:45;;;;;;;;;;;28.40;94.90;;;;;;8324490;28;20050;-80
2023/06/20 18:14:46;;;;;;;;;;;28.30;95.30;;;;;;8331020;28;19919;-80
2023/06/20 18:18:47;;;;;;;;;;;28.20;94.00;;;;;;8332150;28;20305;-78
2023/06/20 18:22:47;;;;;;;;;;;27.70;94.50;;;;;;8331416;28;19913;-78
2023/06/20 18:26:47;;;;;;;;;;;27.30;95.40;;;;;;8329115;28;20397;-79
2023/06/20 18:30:48;;;;;;;;;;;25.70;93.80;;;;;;8323830;28;19963;-79
2023/06/20 18:34:48;;;;;;;;;;;24.60;96.00;;;;;;8330673;28;19916;-78
2023/06/20 18:38:49;;;;;;;;;;;24.00;98.20;;;;;;8327274;28;19972;-78
2023/06/20 18:42:49;;;;;;;;;;;23.60;99.90;;;;;;8333591;28;19917;-79
2023/06/20 18:46:51;;;;;;;;;;;23.60;99.90;;;;;;8332948;28;20495;-79
2023/06/20 18:50:52;;;;;;;;;;;23.10;99.90;;;;;;8346627;28;20020;-79
2023/06/20 18:54:53;;;;;;;;;;;23.00;99.90;;;;;;8330987;28;19913;-76
2023/06/20 18:58:55;;;;;;;;;;;22.80;99.90;;;;;;8352456;28;20055;-77
2023/06/20 19:02:55;;;;;;;;;;;22.80;99.90;;;;;;8354675;28;19970;-78
2023/06/20 19:06:57;;;;;;;;;;;22.80;99.90;;;;;;8340765;28;20282;-79
2023/06/20 19:10:57;;;;;;;;;;;22.90;99.90;;;;;;8342910;28;19956;-79
2023/06/20 19:15:02;;;;;;;;;;;22.80;99.90;;;;;;8346397;28;20377;-78
2023/06/20 19:23:06;;;;;;;;;;;22.50;99.90;;;;;;8308658;28;19933;-77
2023/06/20 19:27:06;;;;;;;;;;;22.30;99.90;;;;;;8292759;28;19963;-77
2023/06/20 19:31:06;;;;;;;;;;;21.80;99.90;;;;;;8309261;28;20543;-78
2023/06/20 19:35:07;;;;;;;;;;;21.80;99.90;;;;;;8301115;28;19941;-77
2023/06/20 19:39:08;;;;;;;;;;;21.60;99.90;;;;;;8284508;28;19921;-77
2023/06/20 19:43:08;;;;;;;;;;;21.70;99.90;;;;;;8288265;28;20558;-77
2023/06/20 19:47:09;;;;;;;;;;;21.30;99.90;;;;;;8302008;28;19944;-77
2023/06/20 19:51:09;;;;;;;;;;;21.40;99.90;;;;;;8307441;28;19917;-77
2023/06/20 19:55:10;;;;;;;;;;;21.80;99.90;;;;;;8329243;28;19982;-76
2023/06/20 19:59:10;;;;;;;;;;;21.70;99.90;;;;;;8285611;28;20070;-78
2023/06/20 20:03:11;;;;;;;;;;;21.70;99.90;;;;;;8291486;28;19923;-80
2023/06/20 20:07:11;;;;;;;;;;;22.30;99.90;;;;;;8314741;28;19999;-79
2023/06/20 20:11:12;;;;;;;;;;;22.30;99.90;;;;;;8296664;28;20491;-78
2023/06/20 20:15:12;;;;;;;;;;;21.70;99.90;;;;;;8310603;28;19981;-79
2023/06/20 20:19:13;;;;;;;;;;;21.90;99.90;;;;;;8314756;28;20462;-81
2023/06/20 20:23:13;;;;;;;;;;;22.20;99.90;;;;;;8318292;28;19921;-81
2023/06/20 20:27:14;;;;;;;;;;;21.60;99.90;;;;;;8294293;28;20122;-80
2023/06/20 20:31:14;;;;;;;;;;;21.80;99.90;;;;;;8299807;28;19913;-80
2023/06/20 20:35:15;;;;;;;;;;;22.10;99.90;;;;;;8301858;28;20345;-80
2023/06/20 20:39:16;;;;;;;;;;;21.90;99.90;;;;;;8315765;28;20447;-79
2023/06/20 20:43:16;;;;;;;;;;;20.80;99.90;;;;;;8290536;28;19913;-81
2023/06/20 20:47:17;;;;;;;;;;;21.50;99.90;;;;;;8342700;28;19913;-80
2023/06/20 20:51:17;;;;;;;;;;;20.70;99.90;;;;;;8297217;28;20344;-81
2023/06/20 20:55:18;;;;;;;;;;;20.60;99.90;;;;;;8292476;28;20348;-80
2023/06/20 20:59:18;;;;;;;;;;;20.20;99.90;;;;;;8313949;28;19917;-81
2023/06/20 21:03:19;;;;;;;;;;;19.60;99.90;;;;;;8299625;28;19927;-81
2023/06/20 21:07:19;;;;;;;;;;;19.50;99.90;;;;;;8324678;28;19913;-81
2023/06/20 21:11:20;;;;;;;;;;;20.00;99.90;;;;;;8319861;28;19924;-81
2023/06/20 21:15:23;;;;;;;;;;;19.70;99.90;;;;;;8311197;28;19956;-79
2023/06/20 21:19:24;;;;;;;;;;;19.70;99.90;;;;;;8306264;28;19924;-81
2023/06/20 21:23:24;;;;;;;;;;;19.80;99.90;;;;;;8326672;28;19916;-81
2023/06/20 21:27:25;;;;;;;;;;;19.40;99.90;;;;;;8320303;28;19913;-81
2023/06/20 21:31:26;;;;;;;;;;;19.10;99.90;;;;;;8315076;28;20028;-80
2023/06/20 21:35:26;;;;;;;;;;;19.20;99.90;;;;;;8326540;28;20044;-81
2023/06/20 21:39:27;;;;;;;;;;;19.20;99.90;;;;;;8321860;28;19967;-80
2023/06/20 21:43:27;;;;;;;;;;;19.20;99.90;;;;;;8310506;28;19917;-81
2023/06/20 21:47:28;;;;;;;;;;;19.30;99.90;;;;;;8309311;28;19913;-81
2023/06/20 21:51:31;;;;;;;;;;;19.20;99.90;;;;;;8315516;28;20400;-81
2023/06/20 21:55:32;;;;;;;;;;;19.20;99.90;;;;;;8341183;28;20583;-81
2023/06/20 21:59:34;;;;;;;;;;;19.60;99.90;;;;;;8325895;28;19914;-81
2023/06/20 22:03:34;;;;;;;;;;;20.20;99.90;;;;;;8290743;28;20356;-81
2023/06/20 22:07:35;;;;;;;;;;;20.50;99.90;;;;;;8293625;28;20308;-81
2023/06/20 22:11:35;;;;;;;;;;;19.90;99.90;;;;;;8304369;28;19916;-81
2023/06/20 22:15:36;;;;;;;;;;;19.60;99.90;;;;;;8315191;28;19960;-81
2023/06/20 22:19:36;;;;;;;;;;;20.20;99.90;;;;;;8310312;28;19928;-81
2023/06/20 22:23:36;;;;;;;;;;;19.80;99.90;;;;;;8289650;28;19936;-81
2023/06/20 22:27:37;;;;;;;;;;;19.20;99.90;;;;;;8315857;28;19913;-81
2023/06/20 22:31:39;;;;;;;;;;;18.90;99.90;;;;;;8325627;28;21294;-80
2023/06/20 22:35:40;;;;;;;;;;;18.60;99.90;;;;;;8332940;28;19909;-81
2023/06/20 22:39:40;;;;;;;;;;;18.40;99.90;;;;;;8330256;28;19913;-81
2023/06/20 22:43:41;;;;;;;;;;;18.50;99.90;;;;;;8312476;28;20401;-81
2023/06/20 22:47:42;;;;;;;;;;;18.30;99.90;;;;;;8317325;28;19916;-81
2023/06/20 22:51:43;;;;;;;;;;;18.20;99.90;;;;;;8339306;28;19974;-81
2023/06/20 22:55:43;;;;;;;;;;;18.90;99.90;;;;;;8329707;28;19909;-81
2023/06/20 22:59:44;;;;;;;;;;;18.70;99.90;;;;;;8339715;28;20007;-80
2023/06/20 23:03:45;;;;;;;;;;;18.10;99.90;;;;;;8320190;28;20093;-81
2023/06/20 23:07:46;;;;;;;;;;;18.80;99.90;;;;;;8293844;28;20039;-81
2023/06/20 23:11:46;;;;;;;;;;;18.20;99.90;;;;;;8307778;28;19913;-81
2023/06/20 23:15:46;;;;;;;;;;;18.30;99.90;;;;;;8317756;28;20019;-81
2023/06/20 23:19:48;;;;;;;;;;;18.10;99.90;;;;;;8308210;28;20103;-81
2023/06/20 23:23:52;;;;;;;;;;;18.10;99.90;;;;;;8331140;28;19952;-81
2023/06/20 23:27:52;;;;;;;;;;;18.80;99.90;;;;;;8288028;28;19979;-80
2023/06/20 23:31:52;;;;;;;;;;;19.00;99.90;;;;;;8311304;28;19909;-80
2023/06/20 23:35:53;;;;;;;;;;;19.00;99.90;;;;;;8308171;28;20419;-80
2023/06/20 23:39:53;;;;;;;;;;;18.80;99.90;;;;;;8321816;28;20396;-80
2023/06/20 23:43:54;;;;;;;;;;;19.10;99.90;;;;;;8324837;28;19913;-79
2023/06/20 23:47:54;;;;;;;;;;;18.60;99.90;;;;;;8300241;28;19932;-80